Time;durP1;ratioP1;P1;durP2;ratioP2;P2;SDS_P1;SDS_P2;PMS_P1;PMS_P2;Temp;Humidity;BMP_temperature;BMP_pressure;BME280_temperature;BME280_humidity;BME280_pressure;Samples;Min_cycle;Max_cycle;Signal;HPM_P1;HPM_P2
2022/09/06 00:00:43;;;;;;;29.83;8.95;;;;;;;18.08;100.00;101034.13;5071770;28;20135;-87
2022/09/06 00:03:10;;;;;;;21.08;7.63;;;;;;;18.02;100.00;101027.44;5087966;28;20052;-86
2022/09/06 00:05:37;;;;;;;21.58;7.45;;;;;;;17.84;100.00;101009.09;5084213;28;20070;-87
2022/09/06 00:08:05;;;;;;;20.25;6.88;;;;;;;17.71;100.00;100994.09;5072610;28;20052;-87
2022/09/06 00:10:33;;;;;;;19.67;7.82;;;;;;;17.79;100.00;101013.81;5094915;28;20094;-87
2022/09/06 00:13:04;;;;;;;24.23;9.07;;;;;;;17.78;100.00;101045.72;5106476;28;20069;-87
2022/09/06 00:15:32;;;;;;;25.23;11.20;;;;;;;17.58;100.00;101031.94;5078763;28;20056;-86
2022/09/06 00:18:05;;;;;;;27.67;8.90;;;;;;;17.64;100.00;101051.88;5076394;28;20058;-86
2022/09/06 00:20:33;;;;;;;27.45;8.70;;;;;;;17.86;100.00;101048.75;5069999;28;20136;-86
2022/09/06 00:23:03;;;;;;;21.75;9.05;;;;;;;17.96;100.00;101038.44;5083001;28;20496;-85
2022/09/06 00:25:30;;;;;;;24.67;8.43;;;;;;;17.88;100.00;101038.91;5059018;28;20051;-85
2022/09/06 00:27:59;;;;;;;19.63;7.53;;;;;;;17.93;100.00;101054.53;5062303;28;20049;-85
2022/09/06 00:30:27;;;;;;;13.80;6.25;;;;;;;17.78;100.00;101053.69;5070910;28;20571;-85
2022/09/06 00:32:55;;;;;;;17.25;7.95;;;;;;;17.75;100.00;101035.31;5076184;28;20056;-85
2022/09/06 00:35:25;;;;;;;16.40;7.28;;;;;;;17.81;100.00;101016.38;5089386;28;20043;-85
2022/09/06 00:37:57;;;;;;;17.90;6.68;;;;;;;17.81;100.00;101050.81;5069535;28;20487;-85
2022/09/06 00:40:25;;;;;;;20.17;6.63;;;;;;;17.85;100.00;101052.34;5076222;28;20052;-85
2022/09/06 00:42:52;;;;;;;25.25;8.88;;;;;;;17.92;100.00;101048.38;5061928;28;20389;-85
2022/09/06 00:45:19;;;;;;;25.10;9.00;;;;;;;17.76;100.00;101051.13;5064653;28;20070;-84
2022/09/06 00:47:46;;;;;;;39.72;15.05;;;;;;;17.67;100.00;101054.34;5068237;28;20058;-85
2022/09/06 00:50:16;;;;;;;24.75;7.68;;;;;;;17.75;100.00;101056.50;5075580;28;20130;-86
2022/09/06 00:52:46;;;;;;;37.70;9.27;;;;;;;17.80;100.00;101047.31;5069286;28;20075;-86
2022/09/06 00:55:13;;;;;;;30.38;10.02;;;;;;;17.72;100.00;101049.59;5074222;28;20402;-85
2022/09/06 00:57:41;;;;;;;19.15;8.82;;;;;;;17.68;100.00;101021.59;5075101;28;20066;-85
2022/09/06 01:00:08;;;;;;;26.85;8.70;;;;;;;17.60;100.00;101023.88;5079632;28;20054;-85
2022/09/06 01:02:35;;;;;;;29.40;8.45;;;;;;;17.38;100.00;101016.44;5075640;28;20409;-86
2022/09/06 01:05:04;;;;;;;25.63;7.50;;;;;;;17.46;100.00;101045.94;5076080;28;20155;-85
2022/09/06 01:07:37;;;;;;;11.57;5.68;;;;;;;17.63;100.00;101066.91;5074410;28;20040;-85
2022/09/06 01:10:18;;;;;;;35.72;7.25;;;;;;;17.66;100.00;101060.56;5074837;28;20050;-88
2022/09/06 01:12:57;;;;;;;23.27;7.20;;;;;;;17.50;100.00;101059.84;5090120;28;20062;-88
2022/09/06 01:15:41;;;;;;;18.40;5.28;;;;;;;17.42;100.00;101034.69;5063715;28;20048;-88
2022/09/06 01:18:26;;;;;;;15.07;5.72;;;;;;;17.58;100.00;101062.84;5069956;28;20583;-87
2022/09/06 01:21:09;;;;;;;32.95;8.88;;;;;;;17.61;100.00;101054.72;5058206;28;20048;-87
2022/09/06 01:23:57;;;;;;;37.83;8.20;;;;;;;17.62;100.00;101059.06;5089563;28;20054;-87
2022/09/06 01:26:43;;;;;;;17.98;6.35;;;;;;;17.58;100.00;101053.13;5063460;28;20046;-87
2022/09/06 01:29:21;;;;;;;23.40;5.72;;;;;;;17.49;100.00;101039.59;5078629;28;20139;-87
2022/09/06 01:31:55;;;;;;;13.82;4.70;;;;;;;17.64;100.00;101052.72;5075242;28;20375;-87
2022/09/06 01:34:46;;;;;;;20.23;5.57;;;;;;;17.61;100.00;101044.13;5075046;28;20504;-87
2022/09/06 01:37:18;;;;;;;10.93;4.30;;;;;;;17.66;100.00;101055.28;5073118;28;20048;-87
2022/09/06 01:39:45;;;;;;;11.48;4.10;;;;;;;17.55;100.00;101037.41;5074207;28;20048;-86
2022/09/06 01:42:20;;;;;;;20.80;6.38;;;;;;;17.51;100.00;101041.22;5074207;28;20044;-86
2022/09/06 01:44:53;;;;;;;20.95;6.20;;;;;;;17.56;100.00;101056.78;5092268;28;20047;-86
2022/09/06 01:47:35;;;;;;;22.10;6.50;;;;;;;17.49;100.00;101040.44;5077596;28;20058;-87
2022/09/06 01:50:07;;;;;;;21.77;6.90;;;;;;;17.67;100.00;101054.34;5088709;28;20066;-86
2022/09/06 01:52:39;;;;;;;24.15;7.65;;;;;;;17.61;100.00;101044.13;5091296;28;20502;-86
2022/09/06 01:55:15;;;;;;;12.50;5.00;;;;;;;17.20;100.00;101010.47;5062151;28;20083;-85
2022/09/06 01:58:05;;;;;;;20.00;6.82;;;;;;;17.73;100.00;101053.13;5064031;28;20502;-85
2022/09/06 02:00:41;;;;;;;23.95;6.95;;;;;;;17.48;100.00;101038.75;5059598;28;20044;-85
2022/09/06 02:03:23;;;;;;;32.42;7.93;;;;;;;17.50;100.00;101042.16;5071810;28;20044;-86
2022/09/06 02:05:54;;;;;;;11.30;4.60;;;;;;;17.22;100.00;101011.22;5081001;28;20048;-85
2022/09/06 02:08:28;;;;;;;13.40;5.13;;;;;;;17.43;100.00;101043.47;5072257;28;20048;-86
2022/09/06 02:11:00;;;;;;;18.13;5.85;;;;;;;17.48;100.00;101038.75;5074726;28;20528;-86
2022/09/06 02:13:37;;;;;;;48.33;8.07;;;;;;;17.27;100.00;101002.06;5061443;28;20409;-86
2022/09/06 02:16:06;;;;;;;29.73;8.13;;;;;;;17.24;100.00;101010.19;5054169;28;20055;-86
2022/09/06 02:18:46;;;;;;;22.52;6.65;;;;;;;17.24;100.00;100975.78;5083239;28;20489;-86
2022/09/06 02:21:17;;;;;;;15.07;6.25;;;;;;;17.49;100.00;101026.34;5073172;28;20058;-86
2022/09/06 02:23:46;;;;;;;40.30;8.27;;;;;;;17.05;100.00;100976.09;5074050;28;20395;-86
2022/09/06 02:26:17;;;;;;;21.52;6.85;;;;;;;17.51;100.00;101027.97;5069815;28;20410;-87
2022/09/06 02:28:44;;;;;;;20.33;5.68;;;;;;;17.37;100.00;100996.19;5072023;28;20138;-87
2022/09/06 02:31:20;;;;;;;14.27;4.75;;;;;;;17.56;100.00;101020.56;5064393;28;20044;-86
2022/09/06 02:33:49;;;;;;;20.25;6.93;;;;;;;17.62;100.00;101014.91;5058428;28;20062;-86
2022/09/06 02:36:17;;;;;;;16.00;4.75;;;;;;;17.52;100.00;100999.69;5088994;28;20058;-85
2022/09/06 02:38:45;;;;;;;18.60;6.22;;;;;;;17.50;100.00;101006.88;5071775;28;20055;-86
2022/09/06 02:41:14;;;;;;;14.48;5.93;;;;;;;17.43;100.00;101009.06;5080061;28;20060;-87
2022/09/06 02:43:42;;;;;;;12.90;4.78;;;;;;;17.57;100.00;101003.75;5073341;28;20050;-86
2022/09/06 02:46:09;;;;;;;21.52;6.45;;;;;;;17.58;100.00;101002.81;5059873;28;20040;-86
2022/09/06 02:48:36;;;;;;;22.67;6.80;;;;;;;17.25;100.00;100966.06;5072247;28;20048;-86
2022/09/06 02:51:07;;;;;;;21.75;6.82;;;;;;;17.51;100.00;101006.81;5068829;28;20528;-86
2022/09/06 02:53:35;;;;;;;18.63;6.43;;;;;;;17.48;100.00;100999.03;5068460;28;20054;-86
2022/09/06 02:56:02;;;;;;;15.50;6.20;;;;;;;17.59;100.00;100999.22;5076613;28;20054;-87
2022/09/06 02:58:29;;;;;;;19.83;7.57;;;;;;;17.51;100.00;100995.34;5090507;28;20508;-86
2022/09/06 03:00:56;;;;;;;16.27;7.00;;;;;;;17.40;100.00;100982.78;5091969;28;20079;-86
2022/09/06 03:03:23;;;;;;;13.52;4.80;;;;;;;17.44;100.00;100955.16;5091563;28;20048;-86
2022/09/06 03:05:52;;;;;;;16.42;6.82;;;;;;;17.37;100.00;100944.13;5055140;28;20139;-86
2022/09/06 03:08:20;;;;;;;16.83;7.88;;;;;;;17.61;100.00;100988.53;5069950;28;20048;-87
2022/09/06 03:10:52;;;;;;;13.77;6.35;;;;;;;17.71;100.00;100983.50;5066305;28;20389;-86
2022/09/06 03:13:20;;;;;;;16.60;6.87;;;;;;;17.58;100.00;100971.06;5061366;28;20044;-88
2022/09/06 03:15:51;;;;;;;23.42;10.20;;;;;;;17.48;100.00;100972.56;5073528;28;20135;-86
2022/09/06 03:18:18;;;;;;;26.73;13.00;;;;;;;17.50;100.00;100977.78;5088270;28;20477;-88
2022/09/06 03:20:48;;;;;;;19.77;8.35;;;;;;;17.59;100.00;100977.19;5071147;28;20048;-87
2022/09/06 03:23:16;;;;;;;15.93;9.15;;;;;;;17.64;100.00;100962.69;5088464;28;20046;-87
2022/09/06 03:25:43;;;;;;;16.00;6.85;;;;;;;17.75;100.00;100972.59;5054591;28;20055;-87
2022/09/06 03:28:11;;;;;;;22.20;12.30;;;;;;;17.65;100.00;100988.25;5053186;28;20060;-87
2022/09/06 03:30:38;;;;;;;17.55;8.05;;;;;;;17.57;100.00;100984.38;5069949;28;20124;-87
2022/09/06 03:33:06;;;;;;;21.55;9.88;;;;;;;17.37;100.00;100969.72;5067079;28;20047;-88
2022/09/06 03:35:32;;;;;;;18.77;9.75;;;;;;;17.29;100.00;100980.81;5073359;28;20553;-88
2022/09/06 03:37:59;;;;;;;21.10;10.38;;;;;;;17.23;100.00;100974.09;5060399;28;20059;-86
2022/09/06 03:40:26;;;;;;;19.02;9.50;;;;;;;17.51;100.00;101012.09;5070674;28;20051;-85
2022/09/06 03:42:53;;;;;;;12.80;6.78;;;;;;;17.57;100.00;101018.78;5073258;28;20048;-86
2022/09/06 03:45:20;;;;;;;24.48;8.88;;;;;;;17.37;100.00;100982.97;5073246;28;20082;-85
2022/09/06 03:47:46;;;;;;;12.30;5.93;;;;;;;17.30;100.00;100989.59;5072316;28;20054;-84
2022/09/06 03:50:13;;;;;;;13.60;5.05;;;;;;;17.51;100.00;100984.75;5073182;28;20051;-85
2022/09/06 03:52:40;;;;;;;13.18;5.93;;;;;;;17.58;100.00;101026.66;5072597;28;20044;-86
2022/09/06 03:55:07;;;;;;;13.40;6.50;;;;;;;17.36;100.00;101007.75;5073167;28;20052;-85
2022/09/06 03:57:34;;;;;;;10.65;5.30;;;;;;;17.37;100.00;100991.78;5072292;28;20050;-88
2022/09/06 04:00:01;;;;;;;13.43;7.03;;;;;;;17.09;100.00;100987.31;5091986;28;20721;-88
2022/09/06 04:02:28;;;;;;;15.75;6.22;;;;;;;17.40;100.00;101020.69;5074272;28;20043;-84
2022/09/06 04:04:54;;;;;;;15.38;7.47;;;;;;;17.35;100.00;101024.56;5084733;28;20055;-84
2022/09/06 04:07:22;;;;;;;12.55;5.47;;;;;;;17.51;100.00;101025.34;5092861;28;20056;-81
2022/09/06 04:09:49;;;;;;;12.40;5.80;;;;;;;17.29;100.00;100986.09;5076830;28;20059;-81
2022/09/06 04:12:15;;;;;;;10.98;4.72;;;;;;;17.48;100.00;100990.25;5093859;28;20134;-82
2022/09/06 04:14:42;;;;;;;10.02;3.80;;;;;;;17.65;100.00;100969.72;5067853;28;20048;-82
2022/09/06 04:17:09;;;;;;;8.73;3.35;;;;;;;17.63;100.00;100938.97;5081013;28;20048;-83
2022/09/06 04:19:36;;;;;;;11.25;3.90;;;;;;;17.62;100.00;100964.59;5087973;28;20371;-83
2022/09/06 04:22:02;;;;;;;8.88;3.45;;;;;;;17.65;100.00;100964.41;5076229;28;20453;-83
2022/09/06 04:24:29;;;;;;;10.20;4.30;;;;;;;17.65;100.00;100987.38;5073190;28;20060;-83
2022/09/06 04:26:56;;;;;;;9.90;3.83;;;;;;;17.61;100.00;100984.06;5060478;28;20052;-84
2022/09/06 04:29:23;;;;;;;8.98;3.80;;;;;;;17.59;100.00;100977.19;5074705;28;20050;-84
2022/09/06 04:31:50;;;;;;;11.23;4.00;;;;;;;17.51;100.00;100959.16;5065380;28;20054;-84
2022/09/06 04:34:18;;;;;;;10.98;3.17;;;;;;;17.64;100.00;100941.53;5093756;28;20100;-84
2022/09/06 04:36:45;;;;;;;8.70;3.58;;;;;;;17.58;100.00;100941.06;5093157;28;20054;-85
2022/09/06 04:39:14;;;;;;;9.05;3.33;;;;;;;17.62;100.00;100958.47;5093568;28;20062;-84
2022/09/06 04:41:41;;;;;;;10.85;3.30;;;;;;;17.80;100.00;100975.81;5075600;28;20059;-84
2022/09/06 04:44:08;;;;;;;7.15;2.80;;;;;;;17.83;100.00;100967.69;5079883;28;20052;-85
2022/09/06 04:46:34;;;;;;;8.48;2.90;;;;;;;17.75;100.00;100943.47;5068074;28;20052;-84
2022/09/06 04:49:02;;;;;;;7.70;3.08;;;;;;;17.82;100.00;100962.47;5075945;28;20442;-85
2022/09/06 04:51:30;;;;;;;9.55;3.05;;;;;;;17.70;100.00;100952.66;5075874;28;20044;-85
2022/09/06 04:53:57;;;;;;;7.60;2.72;;;;;;;17.88;100.00;100956.81;5071164;28;20559;-85
2022/09/06 04:56:25;;;;;;;8.73;3.10;;;;;;;17.77;100.00;100933.63;5063417;28;20051;-83
2022/09/06 04:58:54;;;;;;;11.00;4.70;;;;;;;17.72;100.00;100926.94;5075682;28;20055;-84
2022/09/06 05:01:21;;;;;;;10.63;5.38;;;;;;;17.86;100.00;100948.09;5066664;28;20440;-85
2022/09/06 05:03:48;;;;;;;11.55;4.78;;;;;;;17.56;100.00;100908.53;5085210;28;21884;-85
2022/09/06 05:06:20;;;;;;;19.77;7.82;;;;;;;17.69;100.00;100932.41;5070839;28;20048;-85
2022/09/06 05:08:47;;;;;;;18.02;7.10;;;;;;;17.75;100.00;100938.19;5073455;28;20052;-85
2022/09/06 05:11:15;;;;;;;19.48;8.70;;;;;;;17.91;100.00;100961.91;5070722;28;20047;-85
2022/09/06 05:13:42;;;;;;;24.42;9.80;;;;;;;17.68;100.00;100934.22;5068520;28;20130;-85
2022/09/06 05:16:08;;;;;;;21.13;9.45;;;;;;;17.65;100.00;100937.06;5090256;28;20040;-85
2022/09/06 05:18:35;;;;;;;28.75;11.50;;;;;;;17.61;100.00;100960.25;5070218;28;20496;-85
2022/09/06 05:21:03;;;;;;;20.95;6.93;;;;;;;17.73;100.00;100961.25;5088697;28;20052;-85
2022/09/06 05:23:29;;;;;;;25.17;10.32;;;;;;;17.45;100.00;100919.81;5094474;28;20052;-85
2022/09/06 05:25:56;;;;;;;25.23;10.68;;;;;;;17.48;100.00;100927.56;5069452;28;20050;-86
2022/09/06 05:28:23;;;;;;;23.95;8.32;;;;;;;17.48;100.00;100924.94;5092056;28;20644;-87
2022/09/06 05:30:50;;;;;;;34.10;12.68;;;;;;;17.33;100.00;100907.38;5085990;28;20062;-87
2022/09/06 05:33:21;;;;;;;21.75;8.65;;;;;;;17.79;100.00;100965.31;5062754;28;20745;-87
2022/09/06 05:35:48;;;;;;;19.52;8.80;;;;;;;17.77;100.00;100964.56;5079280;28;20123;-87
2022/09/06 05:38:15;;;;;;;23.83;10.02;;;;;;;17.36;100.00;100925.69;5077657;28;20091;-87
2022/09/06 05:40:42;;;;;;;28.10;10.77;;;;;;;17.47;100.00;100947.03;5072150;28;20048;-87
2022/09/06 05:43:09;;;;;;;28.60;11.52;;;;;;;17.50;100.00;100946.00;5069551;28;20048;-87
2022/09/06 05:45:36;;;;;;;23.10;10.30;;;;;;;17.45;100.00;100949.78;5074371;28;20055;-85
2022/09/06 05:48:03;;;;;;;23.58;8.68;;;;;;;17.65;100.00;100975.00;5068566;28;20074;-85
2022/09/06 05:50:30;;;;;;;19.95;8.70;;;;;;;17.49;100.00;100950.44;5069574;28;20052;-86
2022/09/06 05:52:57;;;;;;;24.58;9.73;;;;;;;17.45;100.00;100946.28;5080247;28;20040;-86
2022/09/06 05:55:24;;;;;;;25.52;8.25;;;;;;;17.58;100.00;100944.56;5063782;28;20044;-86
2022/09/06 05:57:50;;;;;;;29.55;12.63;;;;;;;17.60;100.00;100939.16;5067374;28;20130;-86
2022/09/06 06:00:17;;;;;;;28.98;9.07;;;;;;;17.52;100.00;100947.59;5078020;28;20048;-86
2022/09/06 06:02:48;;;;;;;18.50;8.48;;;;;;;17.28;100.00;100905.00;5068086;28;20044;-87
2022/09/06 06:05:15;;;;;;;21.33;8.85;;;;;;;17.53;100.00;100941.38;5067336;28;20048;-87
2022/09/06 06:07:42;;;;;;;23.55;9.48;;;;;;;17.34;100.00;100904.63;5071047;28;20127;-87
2022/09/06 06:10:09;;;;;;;26.27;9.15;;;;;;;17.58;100.00;100941.94;5083570;28;20045;-87
2022/09/06 06:12:36;;;;;;;30.58;10.27;;;;;;;17.70;100.00;100953.50;5069943;28;20401;-87
2022/09/06 06:15:04;;;;;;;28.55;10.20;;;;;;;17.62;100.00;100951.38;5063413;28;20154;-86
2022/09/06 06:17:31;;;;;;;28.92;10.00;;;;;;;17.65;100.00;100953.81;5072672;28;20075;-86
2022/09/06 06:19:58;;;;;;;41.10;15.27;;;;;;;17.61;100.00;100949.66;5063245;28;20052;-85
2022/09/06 06:22:26;;;;;;;24.35;10.00;;;;;;;17.72;100.00;100940.19;5068056;28;20080;-87
2022/09/06 06:24:52;;;;;;;27.95;10.55;;;;;;;17.54;100.00;100931.63;5074295;28;20501;-86
2022/09/06 06:27:19;;;;;;;24.60;10.30;;;;;;;17.59;100.00;100922.44;5065776;28;20045;-85
2022/09/06 06:29:46;;;;;;;24.42;10.68;;;;;;;17.53;100.00;100922.84;5057446;28;20471;-85
2022/09/06 06:32:13;;;;;;;26.67;11.00;;;;;;;17.63;100.00;100963.63;5078586;28;20056;-87
2022/09/06 06:34:39;;;;;;;30.02;12.13;;;;;;;17.64;100.00;100920.34;5067772;28;20079;-85
2022/09/06 06:37:06;;;;;;;24.90;11.80;;;;;;;17.51;100.00;100930.03;5089791;28;20044;-84
2022/09/06 06:39:33;;;;;;;25.63;10.15;;;;;;;17.55;100.00;100920.94;5099449;28;20393;-85
2022/09/06 06:42:00;;;;;;;28.85;13.88;;;;;;;17.43;100.00;100909.31;5103670;28;20079;-89
2022/09/06 06:44:27;;;;;;;25.75;9.43;;;;;;;17.63;100.00;100929.22;5090670;28;20052;-87
2022/09/06 06:46:56;;;;;;;36.28;11.95;;;;;;;17.42;100.00;100897.06;5075396;28;20410;-87
2022/09/06 06:49:24;;;;;;;26.52;11.38;;;;;;;17.47;100.00;100931.16;5095599;28;20059;-88
2022/09/06 06:51:50;;;;;;;38.30;12.55;;;;;;;17.53;100.00;100959.03;5095005;28;20494;-87
2022/09/06 06:54:17;;;;;;;30.92;14.02;;;;;;;17.32;100.00;100967.38;5093526;28;20051;-87
2022/09/06 06:56:44;;;;;;;25.80;10.95;;;;;;;17.51;100.00;100968.88;5093678;28;20126;-87
2022/09/06 06:59:11;;;;;;;24.90;10.68;;;;;;;17.38;100.00;100939.69;5075843;28;20352;-87
2022/09/06 07:01:38;;;;;;;27.38;14.10;;;;;;;17.41;100.00;100972.09;5080004;28;20131;-88
2022/09/06 07:04:07;;;;;;;31.08;14.73;;;;;;;17.50;100.00;100998.94;5092183;28;20036;-87
2022/09/06 07:06:48;;;;;;;30.75;15.75;;;;;;;17.23;100.00;100973.25;5077211;28;20538;-87
2022/09/06 07:09:35;;;;;;;37.25;15.55;;;;;;;17.31;100.00;100978.06;5095979;28;20055;-87
2022/09/06 07:12:22;;;;;;;31.13;15.13;;;;;;;17.30;100.00;100957.81;5095533;28;20112;-88
2022/09/06 07:14:49;;;;;;;42.72;16.80;;;;;;;17.22;100.00;100945.91;5088941;28;20131;-87
2022/09/06 07:17:16;;;;;;;34.50;14.77;;;;;;;17.34;100.00;100965.50;5079709;28;20083;-88
2022/09/06 07:19:43;;;;;;;29.73;13.82;;;;;;;17.59;100.00;101001.00;5071025;28;20055;-87
2022/09/06 07:22:30;;;;;;;22.92;10.35;;;;;;;17.59;100.00;100985.13;5072742;28;20051;-88
2022/09/06 07:24:56;;;;;;;33.30;13.93;;;;;;;17.42;100.00;100980.88;5086477;28;20131;-88
2022/09/06 07:27:23;;;;;;;29.42;14.73;;;;;;;17.17;100.00;100955.94;5076161;28;20393;-87
2022/09/06 07:30:12;;;;;;;29.90;13.77;;;;;;;17.48;100.00;100966.44;5096060;28;20490;-87
2022/09/06 07:32:40;;;;;;;25.98;10.38;;;;;;;17.41;100.00;100947.44;5070582;28;20052;-87
2022/09/06 07:35:07;;;;;;;31.63;12.23;;;;;;;17.59;100.00;100974.53;5080987;28;20076;-88
2022/09/06 07:37:34;;;;;;;28.63;13.55;;;;;;;17.53;100.00;100972.25;5085673;28;20573;-87
2022/09/06 07:40:02;;;;;;;27.33;12.27;;;;;;;17.55;100.00;100984.47;5078880;28;20051;-87
2022/09/06 07:42:30;;;;;;;27.05;11.90;;;;;;;17.74;100.00;100997.41;5074912;28;20052;-86
2022/09/06 07:45:02;;;;;;;;;;;;;;;17.90;100.00;101001.72;5078840;28;20045;-88
2022/09/06 07:47:29;;;;;;;39.95;14.35;;;;;;;17.79;100.00;101000.59;5083973;28;19928;-87
2022/09/06 07:50:16;;;;;;;25.40;12.15;;;;;;;17.50;100.00;100941.56;5077441;28;20055;-89
2022/09/06 07:53:04;;;;;;;25.42;12.43;;;;;;;17.88;100.00;101004.47;5101279;28;20044;-89
2022/09/06 07:55:32;;;;;;;29.05;11.48;;;;;;;17.87;100.00;100980.78;5089982;28;20076;-89
2022/09/06 07:57:59;;;;;;;33.95;10.82;;;;;;;17.73;100.00;100976.31;5088977;28;20059;-90
2022/09/06 08:00:26;;;;;;;40.40;16.35;;;;;;;17.60;100.00;100955.03;5090174;28;20434;-89
2022/09/06 08:02:53;;;;;;;29.70;11.63;;;;;;;17.80;100.00;100980.28;5088154;28;20047;-90
2022/09/06 08:05:20;;;;;;;35.78;12.20;;;;;;;17.95;100.00;100967.84;5082627;28;20079;-89
2022/09/06 08:08:07;;;;;;;20.17;8.07;;;;;;;18.25;100.00;100983.53;5086911;28;20044;-88
2022/09/06 08:10:54;;;;;;;19.60;8.88;;;;;;;18.11;100.00;100962.41;5082708;28;20051;-89
2022/09/06 08:13:21;;;;;;;23.23;8.30;;;;;;;18.16;100.00;100952.34;5089257;28;20075;-90
2022/09/06 08:15:48;;;;;;;21.90;8.95;;;;;;;18.30;100.00;100962.06;5088592;28;20040;-90
2022/09/06 08:18:15;;;;;;;25.33;10.50;;;;;;;18.43;100.00;100951.47;5088512;28;20097;-89
2022/09/06 08:20:43;;;;;;;18.45;8.30;;;;;;;18.47;100.00;100972.38;5087594;28;20839;-89
2022/09/06 08:23:10;;;;;;;24.40;8.77;;;;;;;18.52;100.00;100970.28;5086267;28;20048;-88
2022/09/06 08:25:36;;;;;;;26.45;8.25;;;;;;;18.56;100.00;100994.78;5082884;28;20482;-88
2022/09/06 08:28:03;;;;;;;22.40;8.48;;;;;;;18.26;100.00;100961.41;5083694;28;20115;-87
2022/09/06 08:30:31;;;;;;;27.45;8.32;;;;;;;18.37;100.00;100950.91;5088158;28;20062;-88
2022/09/06 08:32:59;;;;;;;34.00;9.95;;;;;;;18.15;100.00;100918.84;5088178;28;20519;-88
2022/09/06 08:35:26;;;;;;;29.67;9.68;;;;;;;18.24;100.00;100968.63;5116181;28;20059;-90
2022/09/06 08:38:06;;;;;;;31.10;11.00;;;;;;;18.30;100.00;100986.75;5097553;28;20505;-91
2022/09/06 08:40:47;;;;;;;23.10;7.15;;;;;;;18.34;100.00;100976.78;5085122;28;20562;-86
2022/09/06 08:43:18;;;;;;;37.45;11.00;;;;;;;18.07;100.00;100976.81;5091989;28;20044;-88
2022/09/06 08:45:55;;;;;;;24.92;9.68;;;;;;;17.77;100.00;100967.22;5072560;28;20436;-87
2022/09/06 08:48:27;;;;;;;18.23;7.57;;;;;;;18.21;100.00;101014.69;5075131;28;20087;-87
2022/09/06 08:51:05;;;;;;;27.83;10.90;;;;;;;18.06;100.00;101002.47;5080928;28;20048;-88
2022/09/06 08:53:38;;;;;;;27.45;9.30;;;;;;;17.83;100.00;100995.97;5077678;28;20289;-87
2022/09/06 08:56:15;;;;;;;16.25;6.22;;;;;;;17.89;100.00;101018.59;5082305;28;20138;-86
2022/09/06 08:59:05;;;;;;;41.35;8.77;;;;;;;17.70;100.00;101029.47;5070776;28;20082;-86
2022/09/06 09:02:07;;;;;;;40.38;8.10;;;;;;;17.61;100.00;101029.09;5070049;28;20052;-87
2022/09/06 09:04:40;;;;;;;25.35;7.07;;;;;;;17.65;100.00;101037.69;5085766;28;20050;-86
2022/09/06 09:07:46;;;;;;;29.70;7.60;;;;;;;17.61;100.00;101015.00;5097854;28;20108;-87
2022/09/06 09:10:20;;;;;;;24.38;7.18;;;;;;;17.62;100.00;101029.97;5091383;28;20059;-86
2022/09/06 09:12:48;;;;;;;21.88;6.60;;;;;;;17.43;100.00;100995.81;5086073;28;20123;-87
2022/09/06 09:15:17;;;;;;;44.33;10.80;;;;;;;17.49;100.00;101027.19;5085665;28;20123;-88
2022/09/06 09:17:48;;;;;;;29.25;7.07;;;;;;;17.22;100.00;100963.59;5106534;28;20072;-87
2022/09/06 09:20:15;;;;;;;26.13;7.60;;;;;;;17.41;100.00;101017.09;5115367;28;20138;-87
2022/09/06 09:22:43;;;;;;;32.45;8.23;;;;;;;17.55;100.00;101023.34;5091731;28;20139;-86
2022/09/06 09:25:22;;;;;;;41.22;10.70;;;;;;;17.34;100.00;100991.13;5093420;28;20060;-87
2022/09/06 09:27:56;;;;;;;28.40;7.38;;;;;;;17.42;100.00;101007.34;5069704;28;20131;-86
2022/09/06 09:30:25;;;;;;;16.88;6.20;;;;;;;17.53;100.00;101001.38;5078343;28;20044;-87
2022/09/06 09:33:21;;;;;;;39.92;9.73;;;;;;;17.62;100.00;101022.84;5089242;28;20051;-87
2022/09/06 09:35:49;;;;;;;20.60;7.70;;;;;;;17.41;100.00;100984.50;5086274;28;20048;-87
2022/09/06 09:38:26;;;;;;;36.85;10.90;;;;;;;17.49;100.00;100990.13;5104011;28;20140;-87
2022/09/06 09:40:59;;;;;;;26.90;9.18;;;;;;;17.58;100.00;101015.19;5073612;28;20060;-87
2022/09/06 09:43:29;;;;;;;20.98;9.18;;;;;;;17.49;100.00;101013.97;5079134;28;20074;-87
2022/09/06 09:46:29;;;;;;;32.65;12.30;;;;;;;17.24;100.00;100978.44;5085270;28;20101;-87
2022/09/06 09:49:04;;;;;;;32.25;11.35;;;;;;;17.56;100.00;101012.63;5113206;28;20104;-88
2022/09/06 09:51:34;;;;;;;42.92;13.38;;;;;;;17.41;100.00;100985.34;5090271;28;20063;-90
2022/09/06 09:54:12;;;;;;;41.05;12.18;;;;;;;17.44;100.00;100982.50;5091172;28;20044;-88
2022/09/06 09:56:45;;;;;;;37.55;10.93;;;;;;;17.58;100.00;101002.81;5108244;28;20055;-89
2022/09/06 09:59:25;;;;;;;35.72;11.38;;;;;;;17.59;100.00;101006.31;5090436;28;20075;-88
2022/09/06 10:01:56;;;;;;;51.65;11.82;;;;;;;17.63;100.00;100989.28;5091062;28;20057;-88
2022/09/06 10:04:34;;;;;;;35.03;10.05;;;;;;;17.57;100.00;100971.16;5089096;28;20040;-89
2022/09/06 10:07:18;;;;;;;37.28;9.77;;;;;;;17.11;100.00;100932.53;5080747;28;20104;-88
2022/09/06 10:09:59;;;;;;;34.90;8.98;;;;;;;17.31;100.00;100962.19;5096751;28;20028;-88
2022/09/06 10:12:40;;;;;;;35.90;7.80;;;;;;;17.55;100.00;100971.25;5108086;28;20501;-87
2022/09/06 10:15:11;;;;;;;24.80;8.02;;;;;;;17.51;100.00;100953.84;5108435;28;20074;-88
2022/09/06 10:17:51;;;;;;;29.58;9.02;;;;;;;17.48;100.00;100947.91;5108359;28;20184;-85
2022/09/06 10:20:22;;;;;;;27.73;7.68;;;;;;;17.43;100.00;100942.88;5109341;28;20104;-88
2022/09/06 10:23:02;;;;;;;28.73;7.30;;;;;;;17.67;100.00;100982.84;5091135;28;20079;-89
2022/09/06 10:26:07;;;;;;;35.65;7.82;;;;;;;17.29;100.00;100949.03;5118089;28;20063;-88
2022/09/06 10:28:40;;;;;;;34.40;7.72;;;;;;;17.70;100.00;100972.03;5110616;28;20047;-89
2022/09/06 10:31:32;;;;;;;28.92;7.80;;;;;;;17.55;100.00;100965.94;5088665;28;20043;-90
2022/09/06 10:34:48;;;;;;;25.23;6.30;;;;;;;17.65;100.00;100943.22;5088390;28;20048;-89
2022/09/06 10:37:47;;;;;;;29.70;6.30;;;;;;;17.78;100.00;100940.63;5016293;28;20032;-89
2022/09/06 10:40:38;;;;;;;27.27;6.60;;;;;;;17.81;100.00;100940.44;5085587;28;20028;-89
2022/09/06 10:43:19;;;;;;;38.38;7.82;;;;;;;17.45;100.00;100883.59;5100646;28;20051;-89
2022/09/06 10:46:10;;;;;;;25.02;6.05;;;;;;;17.67;100.00;100913.16;5080364;28;20078;-89
2022/09/06 10:48:47;;;;;;;33.67;7.40;;;;;;;17.67;100.00;100932.56;5064526;28;20053;-89
2022/09/06 10:51:40;;;;;;;23.65;5.82;;;;;;;17.61;100.00;100895.84;5083656;28;20056;-89
2022/09/06 10:54:23;;;;;;;26.03;6.27;;;;;;;17.46;100.00;100882.66;5086884;28;20079;-90
2022/09/06 10:57:12;;;;;;;24.60;5.65;;;;;;;17.73;100.00;100931.31;5081500;28;20059;-89
2022/09/06 11:00:00;;;;;;;24.83;5.38;;;;;;;17.62;100.00;100932.00;5096371;28;20079;-89
2022/09/06 11:03:23;;;;;;;30.27;6.57;;;;;;;17.80;100.00;100924.66;5057696;28;20056;-89
2022/09/06 11:06:12;;;;;;;29.90;6.85;;;;;;;17.47;100.00;100899.38;5083829;28;20472;-87
2022/09/06 11:09:06;;;;;;;32.58;6.53;;;;;;;17.61;100.00;100925.81;5081875;28;20112;-87
2022/09/06 11:11:46;;;;;;;27.33;6.53;;;;;;;17.73;100.00;100921.53;5072969;28;20127;-86
2022/09/06 11:14:14;;;;;;;28.45;7.25;;;;;;;17.60;100.00;100929.44;5080025;28;20049;-85
2022/09/06 11:16:50;;;;;;;29.92;7.03;;;;;;;17.65;100.00;100930.00;5099472;28;20063;-86
2022/09/06 11:19:31;;;;;;;32.42;7.13;;;;;;;17.78;100.00;100921.25;5078946;28;20075;-87
2022/09/06 11:22:17;;;;;;;25.80;6.35;;;;;;;17.81;100.00;100908.66;5083839;28;20405;-86
2022/09/06 11:25:17;;;;;;;20.67;6.15;;;;;;;17.66;100.00;100869.94;5078017;28;20046;-86
2022/09/06 11:27:49;;;;;;;23.08;6.03;;;;;;;17.73;100.00;100897.72;5082614;28;20133;-86
2022/09/06 11:30:19;;;;;;;31.63;7.07;;;;;;;17.56;100.00;100851.13;5094688;28;20051;-85